createdAt,value
2018-10-16T00:01:47.334Z,97.60
2018-10-16T00:04:17.080Z,97.60
2018-10-16T00:06:46.803Z,97.70
2018-10-16T00:09:16.607Z,97.80
2018-10-16T00:12:00.591Z,97.70
2018-10-16T00:14:30.672Z,97.70
2018-10-16T00:17:01.440Z,97.80
2018-10-16T00:19:31.759Z,97.80
2018-10-16T00:22:02.091Z,97.70
2018-10-16T00:24:31.855Z,97.60
2018-10-16T00:27:01.593Z,97.60
2018-10-16T00:29:31.308Z,97.60
2018-10-16T00:32:01.121Z,97.80
2018-10-16T00:34:30.827Z,97.80
2018-10-16T00:37:00.679Z,97.70
2018-10-16T00:39:30.396Z,97.60
2018-10-16T00:42:00.216Z,97.70
2018-10-16T00:44:30.001Z,97.70
2018-10-16T00:46:59.814Z,97.80
2018-10-16T00:49:29.607Z,97.70
2018-10-16T00:51:59.366Z,97.60
2018-10-16T00:54:29.107Z,97.70
2018-10-16T00:56:58.830Z,97.60
2018-10-16T00:59:28.684Z,97.70
2018-10-16T01:01:58.410Z,97.70
2018-10-16T01:04:28.175Z,97.90
2018-10-16T01:06:57.908Z,98.00
2018-10-16T01:09:27.625Z,98.00
2018-10-16T01:11:57.492Z,97.90
2018-10-16T01:14:27.293Z,98.30
2018-10-16T01:16:57.151Z,97.90
2018-10-16T01:19:26.917Z,97.80
2018-10-16T01:21:56.702Z,97.80
2018-10-16T01:24:26.615Z,97.80
2018-10-16T01:26:56.428Z,97.80
2018-10-16T01:29:26.231Z,97.70
2018-10-16T01:31:56.023Z,97.70
2018-10-16T01:34:25.780Z,97.70
2018-10-16T01:36:55.527Z,97.70
2018-10-16T01:39:25.351Z,97.80
2018-10-16T01:41:55.161Z,97.80
2018-10-16T01:44:24.922Z,97.80
2018-10-16T01:46:54.696Z,97.70
2018-10-16T01:49:24.478Z,97.70
2018-10-16T01:51:54.308Z,97.70
2018-10-16T01:54:24.187Z,97.70
2018-10-16T01:56:54.025Z,97.70
2018-10-16T01:59:23.821Z,97.80
2018-10-16T02:01:53.314Z,97.80
2018-10-16T02:04:22.895Z,97.80
2018-10-16T02:06:52.561Z,97.90
2018-10-16T02:09:22.945Z,97.90
2018-10-16T02:11:52.422Z,97.70
2018-10-16T02:14:22.002Z,97.80
2018-10-16T02:16:51.469Z,97.90
2018-10-16T02:19:20.968Z,97.80
2018-10-16T02:21:50.506Z,97.70
2018-10-16T02:24:20.010Z,97.70
2018-10-16T02:26:49.577Z,97.70
2018-10-16T02:29:19.078Z,97.70
2018-10-16T02:31:48.594Z,97.60
2018-10-16T02:34:18.359Z,97.60
2018-10-16T02:36:48.271Z,97.60
2018-10-16T02:39:18.075Z,97.70
2018-10-16T02:41:47.850Z,97.70
2018-10-16T02:44:17.629Z,97.70
2018-10-16T02:46:47.419Z,97.80
2018-10-16T02:49:17.310Z,97.80
2018-10-16T02:51:47.118Z,97.80
2018-10-16T02:54:17.006Z,97.90
2018-10-16T02:56:46.791Z,97.80
2018-10-16T02:59:16.549Z,97.70
2018-10-16T03:01:46.267Z,97.50
2018-10-16T03:04:16.003Z,97.40
2018-10-16T03:06:45.836Z,97.40
2018-10-16T03:09:15.604Z,97.40
2018-10-16T03:11:45.126Z,97.40
2018-10-16T03:14:14.685Z,97.50
2018-10-16T03:16:44.177Z,97.40
2018-10-16T03:19:13.654Z,97.30
2018-10-16T03:21:43.089Z,97.30
2018-10-16T03:24:12.534Z,97.40
2018-10-16T03:26:42.022Z,97.40
2018-10-16T03:29:11.778Z,97.40
2018-10-16T03:31:41.206Z,97.50
2018-10-16T03:34:10.742Z,97.50
2018-10-16T03:36:40.613Z,97.40
2018-10-16T03:39:11.857Z,97.40
2018-10-16T03:41:41.394Z,97.50
2018-10-16T03:44:13.090Z,98.00
2018-10-16T03:46:42.934Z,97.90
2018-10-16T03:49:12.418Z,97.90
2018-10-16T03:51:42.211Z,98.00
2018-10-16T03:54:11.705Z,98.10
2018-10-16T03:56:41.146Z,98.10
2018-10-16T03:59:10.634Z,98.20
2018-10-16T04:01:40.083Z,98.20
2018-10-16T04:04:09.550Z,98.20
2018-10-16T04:06:39.070Z,98.50
2018-10-16T04:09:08.594Z,98.40
2018-10-16T04:11:38.161Z,98.30
2018-10-16T04:14:08.592Z,98.30
2018-10-16T04:16:38.135Z,98.20
2018-10-16T04:19:07.854Z,98.10
2018-10-16T04:21:43.341Z,98.00
2018-10-16T04:24:13.672Z,98.00
2018-10-16T04:26:43.278Z,97.90
2018-10-16T04:29:14.490Z,97.90
2018-10-16T04:31:43.971Z,97.80
2018-10-16T04:34:15.460Z,97.80
2018-10-16T04:36:45.010Z,98.00
2018-10-16T04:39:15.242Z,98.10
2018-10-16T04:41:44.873Z,98.10
2018-10-16T04:44:14.474Z,98.20
2018-10-16T04:46:43.925Z,98.20
2018-10-16T04:49:13.365Z,98.30
2018-10-16T04:51:42.910Z,98.30
2018-10-16T04:54:12.354Z,98.30
2018-10-16T04:56:41.823Z,98.40
2018-10-16T04:59:11.267Z,98.40
2018-10-16T05:01:40.798Z,98.40
2018-10-16T05:04:10.368Z,98.50
2018-10-16T05:06:39.852Z,99.00
2018-10-16T05:09:10.262Z,98.70
2018-10-16T05:11:44.978Z,98.70
2018-10-16T05:14:14.485Z,98.90
2018-10-16T05:16:45.023Z,98.90
2018-10-16T05:19:14.579Z,99.00
2018-10-16T05:21:44.074Z,99.00
2018-10-16T05:24:13.578Z,98.80
2018-10-16T05:26:44.009Z,99.10
2018-10-16T05:29:13.513Z,99.30
2018-10-16T05:31:43.042Z,99.30
2018-10-16T05:34:12.496Z,99.20
2018-10-16T05:36:41.969Z,99.10
2018-10-16T05:39:12.708Z,99.10
2018-10-16T05:41:42.151Z,99.00
2018-10-16T05:44:13.458Z,98.90
2018-10-16T05:46:42.996Z,98.90
2018-10-16T05:49:12.491Z,98.80
2018-10-16T05:51:41.982Z,98.60
2018-10-16T05:54:11.485Z,98.60
2018-10-16T05:56:41.369Z,98.70
2018-10-16T05:59:10.948Z,98.60
2018-10-16T06:01:40.510Z,98.50
2018-10-16T06:04:09.981Z,98.30
2018-10-16T06:06:39.462Z,98.20
2018-10-16T06:09:10.650Z,98.00
2018-10-16T06:11:40.086Z,98.00
2018-10-16T06:14:09.550Z,97.90
2018-10-16T06:16:39.025Z,97.80
2018-10-16T06:19:10.238Z,97.80
2018-10-16T06:21:40.054Z,97.60
2018-10-16T06:24:09.563Z,97.60
2018-10-16T06:26:39.133Z,97.50
2018-10-16T06:29:08.642Z,97.50
2018-10-16T06:31:38.260Z,97.40
2018-10-16T06:34:07.750Z,97.40
2018-10-16T06:36:37.287Z,97.40
2018-10-16T06:39:09.366Z,97.30
2018-10-16T06:41:38.979Z,97.30
2018-10-16T06:44:08.922Z,97.20
2018-10-16T06:46:38.506Z,97.20
2018-10-16T06:49:07.948Z,97.20
2018-10-16T06:51:37.430Z,97.10
2018-10-16T06:54:06.932Z,97.10
2018-10-16T06:56:36.482Z,97.00
2018-10-16T06:59:06.274Z,96.90
2018-10-16T07:01:36.872Z,97.00
2018-10-16T07:04:06.993Z,96.90
2018-10-16T07:06:36.926Z,96.80
2018-10-16T07:09:08.179Z,96.80
2018-10-16T07:11:38.841Z,96.80
2018-10-16T07:14:10.518Z,96.70
2018-10-16T07:16:40.362Z,96.70
2018-10-16T07:19:10.562Z,96.80
2018-10-16T07:21:40.373Z,97.00
2018-10-16T07:24:09.989Z,97.00
2018-10-16T07:26:39.431Z,96.90
2018-10-16T07:29:09.487Z,97.00
2018-10-16T07:31:38.998Z,96.90
2018-10-16T07:34:08.526Z,96.90
2018-10-16T07:36:38.034Z,96.80
2018-10-16T07:39:10.986Z,96.20
2018-10-16T07:41:41.014Z,95.90
2018-10-16T07:44:11.073Z,95.80
2018-10-16T07:46:40.530Z,95.60
2018-10-16T07:49:10.346Z,95.50
2018-10-16T07:51:39.818Z,95.80
2018-10-16T07:54:09.261Z,95.80
2018-10-16T07:56:38.772Z,95.90
2018-10-16T07:59:08.227Z,95.60
2018-10-16T08:01:37.682Z,95.60
2018-10-16T08:04:07.585Z,95.40
2018-10-16T08:06:37.062Z,95.30
2018-10-16T08:09:11.023Z,95.20
2018-10-16T08:11:46.647Z,94.80
2018-10-16T08:14:17.422Z,93.90
2018-10-16T08:16:48.259Z,93.50
2018-10-16T08:19:17.889Z,93.40
2018-10-16T08:21:48.049Z,93.20
2018-10-16T08:24:17.575Z,93.00
2018-10-16T08:26:47.158Z,92.30
2018-10-16T08:29:16.667Z,92.40
2018-10-16T08:31:46.174Z,91.90
2018-10-16T08:34:15.737Z,91.50
2018-10-16T08:36:45.286Z,91.00
2018-10-16T08:39:21.976Z,90.80
2018-10-16T08:42:18.398Z,90.70
2018-10-16T08:45:25.086Z,90.60
2018-10-16T08:48:05.593Z,90.50
2018-10-16T08:50:47.725Z,90.10
2018-10-16T08:53:17.224Z,90.10
2018-10-16T08:55:46.859Z,89.50
2018-10-16T08:58:16.321Z,88.50
2018-10-16T09:00:46.782Z,88.10
2018-10-16T09:03:16.330Z,87.80
2018-10-16T09:05:45.771Z,86.90
2018-10-16T09:08:15.389Z,84.80
2018-10-16T09:10:45.245Z,83.90
2018-10-16T09:13:14.818Z,84.10
2018-10-16T09:15:44.253Z,83.20
2018-10-16T09:18:13.778Z,81.80
2018-10-16T09:20:43.220Z,81.40
2018-10-16T09:23:12.693Z,82.00
2018-10-16T09:25:42.225Z,81.50
2018-10-16T09:28:11.833Z,81.30
2018-10-16T09:30:42.703Z,80.50
2018-10-16T09:33:12.168Z,79.40
2018-10-16T09:35:41.654Z,82.60
2018-10-16T09:38:11.194Z,79.50
2018-10-16T09:40:41.378Z,79.10
2018-10-16T09:43:10.870Z,78.90
2018-10-16T09:45:40.382Z,77.00
2018-10-16T09:48:11.734Z,76.60
2018-10-16T09:50:41.262Z,75.20
2018-10-16T09:53:10.762Z,73.30
2018-10-16T09:55:40.267Z,72.60
2018-10-16T09:58:09.754Z,73.00
2018-10-16T10:00:44.365Z,75.40
2018-10-16T10:03:13.795Z,73.00
2018-10-16T10:05:43.268Z,72.00
2018-10-16T10:08:12.750Z,70.40
2018-10-16T10:10:42.199Z,71.20
2018-10-16T10:13:11.695Z,71.20
2018-10-16T10:15:41.181Z,70.30
2018-10-16T10:18:10.650Z,69.90
2018-10-16T10:20:40.126Z,70.20
2018-10-16T10:23:09.630Z,70.80
2018-10-16T10:25:39.066Z,70.40
2018-10-16T10:28:08.559Z,71.20
2018-10-16T10:30:38.034Z,71.00
2018-10-16T10:33:09.189Z,69.70
2018-10-16T10:35:38.695Z,70.30
2018-10-16T10:38:08.213Z,70.60
2018-10-16T10:40:37.702Z,71.10
2018-10-16T10:43:07.231Z,71.10
2018-10-16T10:45:36.766Z,71.10
2018-10-16T10:48:06.381Z,71.20
2018-10-16T10:50:38.323Z,70.10
2018-10-16T10:53:07.596Z,69.40
2018-10-16T10:55:37.540Z,69.40
2018-10-16T10:58:09.806Z,69.20
2018-10-16T11:00:39.425Z,68.70
2018-10-16T11:03:09.139Z,68.40
2018-10-16T11:05:38.690Z,67.30
2018-10-16T11:08:08.160Z,66.40
2018-10-16T11:10:37.651Z,65.90
2018-10-16T11:13:08.890Z,65.30
2018-10-16T11:15:38.475Z,64.00
2018-10-16T11:18:09.598Z,63.00
2018-10-16T11:20:39.108Z,62.20
2018-10-16T11:23:09.194Z,61.80
2018-10-16T11:25:40.311Z,61.20
2018-10-16T11:28:09.882Z,60.40
2018-10-16T11:30:39.442Z,61.00
2018-10-16T11:33:09.017Z,60.50
2018-10-16T11:35:39.431Z,60.30
2018-10-16T11:38:08.878Z,59.70
2018-10-16T11:40:40.161Z,59.40
2018-10-16T11:43:09.719Z,58.80
2018-10-16T11:45:39.407Z,58.70
2018-10-16T11:48:08.970Z,58.20
2018-10-16T11:50:38.590Z,57.50
2018-10-16T11:53:08.085Z,56.70
2018-10-16T11:55:37.564Z,56.10
2018-10-16T11:58:07.066Z,55.90
2018-10-16T12:00:36.606Z,55.60
2018-10-16T12:03:06.177Z,55.60
2018-10-16T12:05:35.608Z,55.30
2018-10-16T12:08:05.416Z,55.70
2018-10-16T12:10:34.896Z,55.70
2018-10-16T12:13:05.091Z,56.20
2018-10-16T12:15:34.601Z,55.40
2018-10-16T12:19:06.801Z,56.20
2018-10-16T12:21:36.285Z,56.80
2018-10-16T12:24:06.233Z,56.30
2018-10-16T12:26:35.749Z,56.40
2018-10-16T12:29:05.566Z,56.10
2018-10-16T12:31:35.051Z,55.70
2018-10-16T12:34:04.647Z,55.30
2018-10-16T12:36:34.189Z,55.50
2018-10-16T12:39:06.420Z,55.20
2018-10-16T12:41:35.891Z,55.30
2018-10-16T12:44:05.840Z,54.80
2018-10-16T12:46:35.413Z,55.70
2018-10-16T12:49:05.170Z,55.30
2018-10-16T12:51:35.575Z,54.60
2018-10-16T12:54:05.354Z,54.80
2018-10-16T12:56:35.138Z,54.10
2018-10-16T12:59:04.805Z,54.20
2018-10-16T13:01:34.387Z,54.40
2018-10-16T13:04:04.242Z,54.30
2018-10-16T13:06:33.844Z,54.00
2018-10-16T13:09:04.422Z,53.70
2018-10-16T13:11:34.075Z,52.70
2018-10-16T13:14:04.695Z,52.00
2018-10-16T13:16:34.204Z,51.00
2018-10-16T13:19:03.806Z,50.80
2018-10-16T13:21:33.444Z,51.50
2018-10-16T13:24:03.126Z,52.50
2018-10-16T13:26:32.624Z,53.90
2018-10-16T13:29:02.113Z,55.00
2018-10-16T13:31:31.574Z,60.00
2018-10-16T13:34:01.213Z,58.40
2018-10-16T13:36:30.676Z,56.30
2018-10-16T13:39:00.190Z,58.00
2018-10-16T13:41:29.819Z,56.30
2018-10-16T13:43:59.336Z,56.50
2018-10-16T13:46:28.860Z,55.90
2018-10-16T13:48:58.474Z,55.40
2018-10-16T13:51:27.977Z,54.90
2018-10-16T13:53:57.540Z,56.20
2018-10-16T13:56:27.391Z,54.90
2018-10-16T13:58:57.266Z,55.70
2018-10-16T14:01:26.743Z,55.90
2018-10-16T14:03:56.371Z,55.10
2018-10-16T14:06:25.838Z,55.10
2018-10-16T14:08:55.354Z,55.30
2018-10-16T14:11:24.879Z,55.80
2018-10-16T14:13:54.364Z,55.90
2018-10-16T14:16:23.854Z,54.30
2018-10-16T14:18:53.310Z,56.10
2018-10-16T14:21:22.878Z,53.00
2018-10-16T14:23:52.356Z,51.00
2018-10-16T14:26:22.579Z,50.70
2018-10-16T14:28:52.096Z,51.60
2018-10-16T14:31:21.550Z,51.50
2018-10-16T14:33:51.369Z,53.80
2018-10-16T14:36:21.071Z,54.00
2018-10-16T14:38:50.689Z,55.60
2018-10-16T14:41:20.613Z,54.20
2018-10-16T14:43:50.470Z,56.30
2018-10-16T14:46:20.137Z,58.30
2018-10-16T14:48:50.584Z,55.60
2018-10-16T14:51:20.076Z,54.70
2018-10-16T14:53:49.683Z,55.10
2018-10-16T14:56:19.172Z,57.00
2018-10-16T14:58:48.750Z,58.40
2018-10-16T15:01:18.206Z,59.90
2018-10-16T15:03:47.779Z,61.70
2018-10-16T15:06:17.334Z,63.20
2018-10-16T15:08:46.845Z,65.30
2018-10-16T15:11:16.350Z,66.50
2018-10-16T15:13:45.875Z,68.10
2018-10-16T15:16:15.512Z,69.50
2018-10-16T15:18:45.093Z,71.20
2018-10-16T15:21:14.543Z,73.20
2018-10-16T15:23:43.998Z,73.00
2018-10-16T15:26:13.496Z,73.80
2018-10-16T15:28:42.990Z,75.90
2018-10-16T15:31:14.198Z,76.00
2018-10-16T15:33:43.732Z,77.40
2018-10-16T15:36:13.332Z,78.50
2018-10-16T15:38:42.905Z,78.60
2018-10-16T15:41:12.386Z,80.00
2018-10-16T15:43:41.918Z,80.30
2018-10-16T15:46:11.979Z,80.40
2018-10-16T15:48:41.446Z,80.70
2018-10-16T15:51:10.980Z,81.00
2018-10-16T15:53:40.536Z,81.10
2018-10-16T15:56:10.063Z,81.90
2018-10-16T15:58:39.523Z,81.90
2018-10-16T16:01:08.994Z,82.80
2018-10-16T16:03:39.511Z,83.60
2018-10-16T16:06:09.086Z,83.90
2018-10-16T16:08:38.523Z,84.70
2018-10-16T16:11:09.491Z,85.20
2018-10-16T16:13:38.986Z,85.80
2018-10-16T16:16:08.577Z,86.60
2018-10-16T16:18:38.055Z,87.30
2018-10-16T16:21:07.683Z,88.20
2018-10-16T16:23:37.649Z,89.40
2018-10-16T16:26:07.653Z,89.80
2018-10-16T16:28:37.147Z,89.90
2018-10-16T16:31:06.607Z,91.40
2018-10-16T16:33:36.073Z,90.00
2018-10-16T16:36:05.740Z,89.30
2018-10-16T16:38:35.320Z,89.40
2018-10-16T16:41:04.988Z,89.60
2018-10-16T16:43:34.609Z,89.50
2018-10-16T16:46:04.190Z,91.40
2018-10-16T16:48:33.717Z,90.30
2018-10-16T16:51:03.248Z,90.20
2018-10-16T16:53:32.774Z,90.30
2018-10-16T16:56:02.298Z,90.40
2018-10-16T16:58:31.743Z,90.30
2018-10-16T17:01:01.202Z,90.40
2018-10-16T17:03:30.710Z,90.60
2018-10-16T17:06:00.216Z,91.40
2018-10-16T17:08:29.769Z,90.90
2018-10-16T17:10:59.361Z,91.00
2018-10-16T17:13:28.940Z,92.80
2018-10-16T17:15:58.531Z,89.50
2018-10-16T17:18:28.169Z,90.60
2018-10-16T17:20:57.671Z,87.30
2018-10-16T17:23:27.139Z,84.10
2018-10-16T17:25:57.119Z,81.20
2018-10-16T17:28:26.214Z,80.50
2018-10-16T17:30:55.770Z,79.90
2018-10-16T17:33:25.269Z,82.30
2018-10-16T17:35:54.775Z,82.60
2018-10-16T17:38:24.234Z,83.60
2018-10-16T17:40:53.693Z,85.60
2018-10-16T17:43:23.275Z,87.00
2018-10-16T17:45:52.791Z,88.70
2018-10-16T17:48:22.249Z,89.60
2018-10-16T17:50:51.744Z,91.40
2018-10-16T17:53:21.238Z,90.70
2018-10-16T17:55:50.695Z,90.80
2018-10-16T17:58:20.240Z,91.00
2018-10-16T18:00:50.869Z,91.50
2018-10-16T18:03:20.410Z,91.90
2018-10-16T18:05:50.838Z,92.10
2018-10-16T18:08:20.363Z,92.30
2018-10-16T18:10:50.776Z,92.60
2018-10-16T18:13:20.239Z,92.80
2018-10-16T18:15:49.742Z,93.00
2018-10-16T18:18:19.696Z,93.10
2018-10-16T18:20:49.142Z,93.10
2018-10-16T18:23:18.705Z,93.30
2018-10-16T18:25:48.274Z,93.30
2018-10-16T18:28:17.863Z,93.80
2018-10-16T18:30:47.425Z,93.50
2018-10-16T18:33:16.894Z,93.70
2018-10-16T18:35:46.361Z,93.90
2018-10-16T18:38:15.891Z,94.00
2018-10-16T18:40:45.526Z,94.20
2018-10-16T18:43:16.002Z,94.40
2018-10-16T18:45:45.556Z,94.60
2018-10-16T18:48:15.850Z,94.70
2018-10-16T18:50:45.502Z,94.80
2018-10-16T18:53:15.112Z,94.80
2018-10-16T18:55:44.751Z,94.70
2018-10-16T18:58:14.460Z,94.70
2018-10-16T19:00:44.026Z,94.70
2018-10-16T19:03:14.813Z,94.70
2018-10-16T19:05:45.226Z,94.70
2018-10-16T19:08:14.896Z,94.90
2018-10-16T19:10:44.494Z,95.10
2018-10-16T19:13:15.150Z,95.10
2018-10-16T19:15:45.558Z,95.20
2018-10-16T19:18:15.838Z,95.20
2018-10-16T19:20:45.578Z,95.30
2018-10-16T19:23:16.159Z,95.40
2018-10-16T19:25:45.763Z,95.30
2018-10-16T19:28:15.490Z,95.30
2018-10-16T19:30:45.196Z,95.40
2018-10-16T19:33:15.134Z,95.30
2018-10-16T19:35:44.677Z,95.30
2018-10-16T19:38:14.478Z,95.20
2018-10-16T19:40:44.038Z,95.20
2018-10-16T19:43:13.591Z,95.40
2018-10-16T19:45:43.166Z,95.50
2018-10-16T19:48:14.747Z,95.70
2018-10-16T19:50:44.252Z,95.50
2018-10-16T19:53:13.722Z,95.40
2018-10-16T19:55:43.206Z,95.40
2018-10-16T19:58:12.748Z,95.40
2018-10-16T20:00:42.232Z,95.30
2018-10-16T20:03:11.921Z,95.30
2018-10-16T20:05:41.669Z,95.40
2018-10-16T20:08:11.356Z,95.40
2018-10-16T20:10:40.939Z,95.40
2018-10-16T20:13:10.517Z,95.40
2018-10-16T20:15:40.074Z,95.60
2018-10-16T20:18:11.342Z,95.70
2018-10-16T20:20:42.427Z,95.70
2018-10-16T20:23:11.907Z,95.80
2018-10-16T20:25:41.510Z,95.90
2018-10-16T20:28:11.390Z,95.90
2018-10-16T20:30:40.997Z,95.80
2018-10-16T20:33:10.459Z,95.80
2018-10-16T20:35:39.974Z,95.50
2018-10-16T20:38:09.438Z,95.90
2018-10-16T20:40:38.883Z,96.00
2018-10-16T20:43:08.341Z,96.00
2018-10-16T20:45:37.858Z,96.10
2018-10-16T20:48:07.354Z,96.10
2018-10-16T20:50:36.842Z,96.00
2018-10-16T20:53:07.572Z,96.00
2018-10-16T20:55:37.440Z,96.10
2018-10-16T20:58:06.986Z,96.20
2018-10-16T21:00:36.695Z,96.30
2018-10-16T21:03:06.167Z,96.30
2018-10-16T21:05:35.631Z,96.40
2018-10-16T21:08:05.146Z,96.40
2018-10-16T21:10:34.650Z,96.50
2018-10-16T21:13:04.191Z,96.50
2018-10-16T21:15:33.718Z,96.50
2018-10-16T21:18:03.171Z,96.50
2018-10-16T21:20:32.654Z,96.60
2018-10-16T21:23:02.170Z,96.60
2018-10-16T21:25:31.614Z,96.50
2018-10-16T21:28:01.158Z,96.40
2018-10-16T21:30:30.586Z,96.40
2018-10-16T21:33:00.057Z,96.40
2018-10-16T21:35:29.565Z,96.30
2018-10-16T21:37:59.023Z,96.40
2018-10-16T21:40:28.457Z,96.80
2018-10-16T21:42:57.988Z,96.80
2018-10-16T21:45:28.059Z,96.90
2018-10-16T21:47:58.494Z,96.90
2018-10-16T21:50:27.941Z,96.90
2018-10-16T21:52:57.498Z,96.80
2018-10-16T21:55:27.790Z,96.70
2018-10-16T21:57:57.237Z,96.70
2018-10-16T22:00:32.346Z,96.70
2018-10-16T22:03:01.845Z,96.80
2018-10-16T22:05:31.298Z,96.70
2018-10-16T22:08:00.975Z,96.70
2018-10-16T22:10:30.393Z,96.70
2018-10-16T22:12:59.909Z,96.60
2018-10-16T22:15:29.414Z,96.70
2018-10-16T22:18:00.558Z,96.70
2018-10-16T22:20:29.998Z,96.80
2018-10-16T22:22:59.617Z,96.80
2018-10-16T22:25:29.098Z,96.90
2018-10-16T22:27:58.606Z,96.70
2018-10-16T22:30:29.122Z,96.60
2018-10-16T22:32:58.569Z,96.70
2018-10-16T22:35:28.035Z,96.80
2018-10-16T22:37:57.502Z,96.80
2018-10-16T22:40:26.954Z,96.80
2018-10-16T22:42:56.414Z,97.30
2018-10-16T22:45:25.899Z,97.00
2018-10-16T22:47:55.380Z,97.00
2018-10-16T22:50:24.864Z,97.10
2018-10-16T22:52:54.468Z,97.20
2018-10-16T22:55:23.950Z,97.30
2018-10-16T22:57:53.398Z,97.30
2018-10-16T23:00:22.915Z,97.40
2018-10-16T23:02:52.347Z,97.30
2018-10-16T23:05:21.861Z,97.30
2018-10-16T23:07:51.306Z,97.30
2018-10-16T23:10:20.878Z,97.20
2018-10-16T23:12:55.623Z,97.20
2018-10-16T23:15:25.181Z,97.30
2018-10-16T23:17:54.637Z,97.40
2018-10-16T23:20:24.173Z,97.70
2018-10-16T23:22:53.693Z,97.30
2018-10-16T23:25:23.213Z,97.30
2018-10-16T23:27:52.757Z,97.50
2018-10-16T23:30:22.262Z,97.70
2018-10-16T23:32:51.748Z,97.80
2018-10-16T23:35:21.238Z,97.90
2018-10-16T23:37:50.719Z,98.00
2018-10-16T23:40:20.255Z,97.80
2018-10-16T23:42:49.754Z,98.00
2018-10-16T23:45:19.217Z,98.00
2018-10-16T23:47:48.810Z,97.90
2018-10-16T23:50:18.298Z,97.70
2018-10-16T23:52:47.813Z,97.70
2018-10-16T23:55:17.360Z,97.60
2018-10-16T23:57:47.047Z,97.70
